sensor_id;sensor_type;location;lat;lon;timestamp;temperature;humidity
21502;DHT22;27639;48.674;9.242;2024-03-22T00:01:47;13.70;55.70
21502;DHT22;27639;48.674;9.242;2024-03-22T00:04:14;13.70;55.80
21502;DHT22;27639;48.674;9.242;2024-03-22T00:06:41;13.60;55.80
21502;DHT22;27639;48.674;9.242;2024-03-22T00:09:07;13.50;55.70
21502;DHT22;27639;48.674;9.242;2024-03-22T00:11:32;13.50;55.80
21502;DHT22;27639;48.674;9.242;2024-03-22T00:13:58;13.40;55.80
21502;DHT22;27639;48.674;9.242;2024-03-22T00:16:24;13.40;55.80
21502;DHT22;27639;48.674;9.242;2024-03-22T00:18:49;13.40;55.90
21502;DHT22;27639;48.674;9.242;2024-03-22T00:21:16;13.30;55.90
21502;DHT22;27639;48.674;9.242;2024-03-22T00:23:42;13.20;56.00
21502;DHT22;27639;48.674;9.242;2024-03-22T00:26:08;13.20;56.10
21502;DHT22;27639;48.674;9.242;2024-03-22T00:28:33;13.20;56.20
21502;DHT22;27639;48.674;9.242;2024-03-22T00:30:59;13.10;56.20
21502;DHT22;27639;48.674;9.242;2024-03-22T00:33:24;13.10;56.40
21502;DHT22;27639;48.674;9.242;2024-03-22T00:35:50;12.90;56.20
21502;DHT22;27639;48.674;9.242;2024-03-22T00:38:16;12.90;56.20
21502;DHT22;27639;48.674;9.242;2024-03-22T00:40:42;12.90;56.20
21502;DHT22;27639;48.674;9.242;2024-03-22T00:43:07;12.90;56.20
21502;DHT22;27639;48.674;9.242;2024-03-22T00:45:33;12.90;56.20
21502;DHT22;27639;48.674;9.242;2024-03-22T00:47:58;12.90;56.20
21502;DHT22;27639;48.674;9.242;2024-03-22T00:50:24;12.90;56.20
21502;DHT22;27639;48.674;9.242;2024-03-22T00:52:52;12.90;56.20
21502;DHT22;27639;48.674;9.242;2024-03-22T00:55:20;12.80;56.10
21502;DHT22;27639;48.674;9.242;2024-03-22T00:57:45;12.70;56.10
21502;DHT22;27639;48.674;9.242;2024-03-22T01:00:11;12.70;56.30
21502;DHT22;27639;48.674;9.242;2024-03-22T01:02:37;12.70;56.30
21502;DHT22;27639;48.674;9.242;2024-03-22T01:05:02;12.70;56.20
21502;DHT22;27639;48.674;9.242;2024-03-22T01:07:28;12.70;56.10
21502;DHT22;27639;48.674;9.242;2024-03-22T01:09:53;12.60;56.00
21502;DHT22;27639;48.674;9.242;2024-03-22T01:12:19;12.60;56.10
21502;DHT22;27639;48.674;9.242;2024-03-22T01:14:45;12.50;56.10
21502;DHT22;27639;48.674;9.242;2024-03-22T01:17:10;12.40;56.30
21502;DHT22;27639;48.674;9.242;2024-03-22T01:19:36;12.40;56.30
21502;DHT22;27639;48.674;9.242;2024-03-22T01:22:01;12.40;56.50
21502;DHT22;27639;48.674;9.242;2024-03-22T01:24:27;12.30;56.40
21502;DHT22;27639;48.674;9.242;2024-03-22T01:26:53;12.30;56.50
21502;DHT22;27639;48.674;9.242;2024-03-22T01:29:19;12.20;56.60
21502;DHT22;27639;48.674;9.242;2024-03-22T01:31:44;12.20;56.70
21502;DHT22;27639;48.674;9.242;2024-03-22T01:34:10;12.10;57.10
21502;DHT22;27639;48.674;9.242;2024-03-22T01:36:35;12.10;56.80
21502;DHT22;27639;48.674;9.242;2024-03-22T01:39:01;12.00;56.70
21502;DHT22;27639;48.674;9.242;2024-03-22T01:41:27;12.00;56.90
21502;DHT22;27639;48.674;9.242;2024-03-22T01:43:52;11.90;57.00
21502;DHT22;27639;48.674;9.242;2024-03-22T01:46:18;11.90;57.00
21502;DHT22;27639;48.674;9.242;2024-03-22T01:48:44;11.90;57.30
21502;DHT22;27639;48.674;9.242;2024-03-22T01:51:09;11.90;57.40
21502;DHT22;27639;48.674;9.242;2024-03-22T01:53:36;11.90;57.50
21502;DHT22;27639;48.674;9.242;2024-03-22T01:56:02;11.90;57.60
21502;DHT22;27639;48.674;9.242;2024-03-22T01:58:28;12.00;57.80
21502;DHT22;27639;48.674;9.242;2024-03-22T02:00:54;12.00;57.90
21502;DHT22;27639;48.674;9.242;2024-03-22T02:03:20;12.00;57.30
21502;DHT22;27639;48.674;9.242;2024-03-22T02:05:45;12.00;57.20
21502;DHT22;27639;48.674;9.242;2024-03-22T02:08:11;12.00;56.80
21502;DHT22;27639;48.674;9.242;2024-03-22T02:10:36;12.00;56.60
21502;DHT22;27639;48.674;9.242;2024-03-22T02:13:02;11.90;57.20
21502;DHT22;27639;48.674;9.242;2024-03-22T02:15:28;11.90;57.40
21502;DHT22;27639;48.674;9.242;2024-03-22T02:17:53;11.80;56.90
21502;DHT22;27639;48.674;9.242;2024-03-22T02:20:19;11.70;57.10
21502;DHT22;27639;48.674;9.242;2024-03-22T02:22:44;11.70;57.30
21502;DHT22;27639;48.674;9.242;2024-03-22T02:25:10;11.60;57.30
21502;DHT22;27639;48.674;9.242;2024-03-22T02:27:35;11.60;57.40
21502;DHT22;27639;48.674;9.242;2024-03-22T02:30:01;11.70;57.60
21502;DHT22;27639;48.674;9.242;2024-03-22T02:32:27;11.70;57.40
21502;DHT22;27639;48.674;9.242;2024-03-22T02:34:53;11.70;57.20
21502;DHT22;27639;48.674;9.242;2024-03-22T02:37:18;11.70;57.10
21502;DHT22;27639;48.674;9.242;2024-03-22T02:39:44;11.70;57.00
21502;DHT22;27639;48.674;9.242;2024-03-22T02:42:10;11.80;56.80
21502;DHT22;27639;48.674;9.242;2024-03-22T02:44:35;11.70;56.70
21502;DHT22;27639;48.674;9.242;2024-03-22T02:47:04;11.70;56.80
21502;DHT22;27639;48.674;9.242;2024-03-22T02:49:29;11.70;56.90
21502;DHT22;27639;48.674;9.242;2024-03-22T02:51:55;11.60;56.90
21502;DHT22;27639;48.674;9.242;2024-03-22T02:54:20;11.60;56.90
21502;DHT22;27639;48.674;9.242;2024-03-22T02:56:46;11.60;57.00
21502;DHT22;27639;48.674;9.242;2024-03-22T02:59:12;11.50;56.90
21502;DHT22;27639;48.674;9.242;2024-03-22T03:01:37;11.50;56.90
21502;DHT22;27639;48.674;9.242;2024-03-22T03:04:03;11.60;56.80
21502;DHT22;27639;48.674;9.242;2024-03-22T03:06:28;11.50;56.60
21502;DHT22;27639;48.674;9.242;2024-03-22T03:08:54;11.50;56.90
21502;DHT22;27639;48.674;9.242;2024-03-22T03:11:19;11.40;57.00
21502;DHT22;27639;48.674;9.242;2024-03-22T03:13:45;11.30;56.90
21502;DHT22;27639;48.674;9.242;2024-03-22T03:16:10;11.30;57.00
21502;DHT22;27639;48.674;9.242;2024-03-22T03:18:36;11.20;57.80
21502;DHT22;27639;48.674;9.242;2024-03-22T03:21:02;11.20;57.30
21502;DHT22;27639;48.674;9.242;2024-03-22T03:23:27;11.20;57.60
21502;DHT22;27639;48.674;9.242;2024-03-22T03:25:53;11.20;57.70
21502;DHT22;27639;48.674;9.242;2024-03-22T03:28:18;11.10;57.60
21502;DHT22;27639;48.674;9.242;2024-03-22T03:30:44;11.10;57.60
21502;DHT22;27639;48.674;9.242;2024-03-22T03:33:10;11.00;57.70
21502;DHT22;27639;48.674;9.242;2024-03-22T03:35:35;11.00;57.90
21502;DHT22;27639;48.674;9.242;2024-03-22T03:38:01;11.00;58.00
21502;DHT22;27639;48.674;9.242;2024-03-22T03:40:27;11.10;58.20
21502;DHT22;27639;48.674;9.242;2024-03-22T03:42:53;11.10;58.10
21502;DHT22;27639;48.674;9.242;2024-03-22T03:45:19;11.10;58.00
21502;DHT22;27639;48.674;9.242;2024-03-22T03:47:44;11.10;58.00
21502;DHT22;27639;48.674;9.242;2024-03-22T03:50:10;11.00;57.90
21502;DHT22;27639;48.674;9.242;2024-03-22T03:52:36;11.00;57.90
21502;DHT22;27639;48.674;9.242;2024-03-22T03:55:01;11.00;58.00
21502;DHT22;27639;48.674;9.242;2024-03-22T03:57:28;11.00;57.90
21502;DHT22;27639;48.674;9.242;2024-03-22T03:59:53;11.00;58.00
21502;DHT22;27639;48.674;9.242;2024-03-22T04:02:19;11.00;58.00
21502;DHT22;27639;48.674;9.242;2024-03-22T04:04:44;11.00;58.00
21502;DHT22;27639;48.674;9.242;2024-03-22T04:07:10;11.00;57.90
21502;DHT22;27639;48.674;9.242;2024-03-22T04:09:35;11.00;58.00
21502;DHT22;27639;48.674;9.242;2024-03-22T04:12:01;10.90;57.90
21502;DHT22;27639;48.674;9.242;2024-03-22T04:14:26;10.90;57.90
21502;DHT22;27639;48.674;9.242;2024-03-22T04:16:52;10.90;57.80
21502;DHT22;27639;48.674;9.242;2024-03-22T04:19:20;10.90;58.00
21502;DHT22;27639;48.674;9.242;2024-03-22T04:21:46;10.90;57.80
21502;DHT22;27639;48.674;9.242;2024-03-22T04:24:12;10.90;57.80
21502;DHT22;27639;48.674;9.242;2024-03-22T04:26:37;10.80;57.80
21502;DHT22;27639;48.674;9.242;2024-03-22T04:29:03;10.90;58.00
21502;DHT22;27639;48.674;9.242;2024-03-22T04:31:28;10.80;57.90
21502;DHT22;27639;48.674;9.242;2024-03-22T04:33:54;10.80;57.80
21502;DHT22;27639;48.674;9.242;2024-03-22T04:36:19;10.80;57.80
21502;DHT22;27639;48.674;9.242;2024-03-22T04:38:45;10.80;57.80
21502;DHT22;27639;48.674;9.242;2024-03-22T04:41:10;10.80;57.80
21502;DHT22;27639;48.674;9.242;2024-03-22T04:43:36;10.70;57.90
21502;DHT22;27639;48.674;9.242;2024-03-22T04:46:02;10.70;58.00
21502;DHT22;27639;48.674;9.242;2024-03-22T04:48:28;10.60;57.90
21502;DHT22;27639;48.674;9.242;2024-03-22T04:50:53;10.60;57.90
21502;DHT22;27639;48.674;9.242;2024-03-22T04:53:22;10.60;57.90
21502;DHT22;27639;48.674;9.242;2024-03-22T04:55:48;10.60;57.90
21502;DHT22;27639;48.674;9.242;2024-03-22T04:58:17;10.60;57.90
21502;DHT22;27639;48.674;9.242;2024-03-22T05:00:44;10.60;58.10
21502;DHT22;27639;48.674;9.242;2024-03-22T05:03:10;10.60;58.00
21502;DHT22;27639;48.674;9.242;2024-03-22T05:05:36;10.60;58.40
21502;DHT22;27639;48.674;9.242;2024-03-22T05:08:02;10.60;58.50
21502;DHT22;27639;48.674;9.242;2024-03-22T05:10:29;10.70;58.50
21502;DHT22;27639;48.674;9.242;2024-03-22T05:12:55;10.70;58.10
21502;DHT22;27639;48.674;9.242;2024-03-22T05:15:21;10.70;58.00
21502;DHT22;27639;48.674;9.242;2024-03-22T05:17:47;10.60;58.60
21502;DHT22;27639;48.674;9.242;2024-03-22T05:20:12;10.60;57.90
21502;DHT22;27639;48.674;9.242;2024-03-22T05:22:38;10.70;58.10
21502;DHT22;27639;48.674;9.242;2024-03-22T05:25:04;10.60;57.90
21502;DHT22;27639;48.674;9.242;2024-03-22T05:27:31;10.60;58.00
21502;DHT22;27639;48.674;9.242;2024-03-22T05:29:58;10.60;58.40
21502;DHT22;27639;48.674;9.242;2024-03-22T05:32:23;10.60;58.30
21502;DHT22;27639;48.674;9.242;2024-03-22T05:34:49;10.60;58.30
21502;DHT22;27639;48.674;9.242;2024-03-22T05:37:15;10.70;58.50
21502;DHT22;27639;48.674;9.242;2024-03-22T05:39:40;10.70;58.40
21502;DHT22;27639;48.674;9.242;2024-03-22T05:42:06;10.70;58.20
21502;DHT22;27639;48.674;9.242;2024-03-22T05:44:32;10.70;58.00
21502;DHT22;27639;48.674;9.242;2024-03-22T05:46:57;10.70;58.00
21502;DHT22;27639;48.674;9.242;2024-03-22T05:49:23;10.80;58.10
21502;DHT22;27639;48.674;9.242;2024-03-22T05:51:48;10.80;58.10
21502;DHT22;27639;48.674;9.242;2024-03-22T05:54:14;10.80;58.10
21502;DHT22;27639;48.674;9.242;2024-03-22T05:56:40;10.70;58.00
21502;DHT22;27639;48.674;9.242;2024-03-22T05:59:05;10.70;58.00
21502;DHT22;27639;48.674;9.242;2024-03-22T06:01:32;10.70;58.70
21502;DHT22;27639;48.674;9.242;2024-03-22T06:03:57;10.70;58.90
21502;DHT22;27639;48.674;9.242;2024-03-22T06:06:23;10.70;58.40
21502;DHT22;27639;48.674;9.242;2024-03-22T06:08:51;10.80;58.80
21502;DHT22;27639;48.674;9.242;2024-03-22T06:11:22;10.80;59.00
21502;DHT22;27639;48.674;9.242;2024-03-22T06:13:48;10.90;59.10
21502;DHT22;27639;48.674;9.242;2024-03-22T06:16:14;10.90;59.00
21502;DHT22;27639;48.674;9.242;2024-03-22T06:18:40;11.00;58.90
21502;DHT22;27639;48.674;9.242;2024-03-22T06:21:06;11.10;59.00
21502;DHT22;27639;48.674;9.242;2024-03-22T06:23:32;11.10;58.90
21502;DHT22;27639;48.674;9.242;2024-03-22T06:25:58;11.20;58.90
21502;DHT22;27639;48.674;9.242;2024-03-22T06:28:26;11.20;58.90
21502;DHT22;27639;48.674;9.242;2024-03-22T06:30:52;11.30;58.90
21502;DHT22;27639;48.674;9.242;2024-03-22T06:33:17;11.30;59.00
21502;DHT22;27639;48.674;9.242;2024-03-22T06:35:43;11.40;59.30
21502;DHT22;27639;48.674;9.242;2024-03-22T06:38:09;11.50;60.10
21502;DHT22;27639;48.674;9.242;2024-03-22T06:40:35;11.80;61.00
21502;DHT22;27639;48.674;9.242;2024-03-22T06:43:01;12.10;60.60
21502;DHT22;27639;48.674;9.242;2024-03-22T06:45:26;12.30;59.90
21502;DHT22;27639;48.674;9.242;2024-03-22T06:47:52;12.50;59.50
21502;DHT22;27639;48.674;9.242;2024-03-22T06:50:17;12.80;59.70
21502;DHT22;27639;48.674;9.242;2024-03-22T06:52:43;13.00;59.20
21502;DHT22;27639;48.674;9.242;2024-03-22T06:55:09;13.20;58.90
21502;DHT22;27639;48.674;9.242;2024-03-22T06:57:37;13.50;59.20
21502;DHT22;27639;48.674;9.242;2024-03-22T07:00:03;13.60;58.30
21502;DHT22;27639;48.674;9.242;2024-03-22T07:02:29;13.80;58.00
21502;DHT22;27639;48.674;9.242;2024-03-22T07:04:54;13.90;57.80
21502;DHT22;27639;48.674;9.242;2024-03-22T07:07:20;14.10;57.70
21502;DHT22;27639;48.674;9.242;2024-03-22T07:09:45;14.30;57.40
21502;DHT22;27639;48.674;9.242;2024-03-22T07:12:13;14.40;57.20
21502;DHT22;27639;48.674;9.242;2024-03-22T07:14:38;14.60;57.40
21502;DHT22;27639;48.674;9.242;2024-03-22T07:17:04;14.70;56.80
21502;DHT22;27639;48.674;9.242;2024-03-22T07:19:31;14.90;56.60
21502;DHT22;27639;48.674;9.242;2024-03-22T07:21:56;15.20;56.50
21502;DHT22;27639;48.674;9.242;2024-03-22T07:24:25;15.30;56.40
21502;DHT22;27639;48.674;9.242;2024-03-22T07:26:51;15.40;55.80
21502;DHT22;27639;48.674;9.242;2024-03-22T07:29:16;15.50;55.50
21502;DHT22;27639;48.674;9.242;2024-03-22T07:31:42;15.60;55.50
21502;DHT22;27639;48.674;9.242;2024-03-22T07:34:08;15.70;55.40
21502;DHT22;27639;48.674;9.242;2024-03-22T07:36:37;15.80;55.50
21502;DHT22;27639;48.674;9.242;2024-03-22T07:39:03;16.00;55.10
21502;DHT22;27639;48.674;9.242;2024-03-22T07:41:32;16.10;55.20
21502;DHT22;27639;48.674;9.242;2024-03-22T07:43:58;16.30;55.00
21502;DHT22;27639;48.674;9.242;2024-03-22T07:46:24;16.50;54.80
21502;DHT22;27639;48.674;9.242;2024-03-22T07:48:50;16.80;54.50
21502;DHT22;27639;48.674;9.242;2024-03-22T07:51:15;16.90;54.20
21502;DHT22;27639;48.674;9.242;2024-03-22T07:53:41;17.10;54.10
21502;DHT22;27639;48.674;9.242;2024-03-22T07:56:06;17.30;53.80
21502;DHT22;27639;48.674;9.242;2024-03-22T07:58:32;17.30;53.50
21502;DHT22;27639;48.674;9.242;2024-03-22T08:00:57;17.30;53.20
21502;DHT22;27639;48.674;9.242;2024-03-22T08:03:23;17.30;53.40
21502;DHT22;27639;48.674;9.242;2024-03-22T08:05:49;17.40;53.30
21502;DHT22;27639;48.674;9.242;2024-03-22T08:08:14;17.60;53.00
21502;DHT22;27639;48.674;9.242;2024-03-22T08:10:40;17.80;52.80
21502;DHT22;27639;48.674;9.242;2024-03-22T08:13:05;18.00;52.70
21502;DHT22;27639;48.674;9.242;2024-03-22T08:15:31;18.20;52.30
21502;DHT22;27639;48.674;9.242;2024-03-22T08:17:56;18.40;52.50
21502;DHT22;27639;48.674;9.242;2024-03-22T08:20:25;18.60;52.40
21502;DHT22;27639;48.674;9.242;2024-03-22T08:22:51;18.80;51.90
21502;DHT22;27639;48.674;9.242;2024-03-22T08:25:16;18.90;52.00
21502;DHT22;27639;48.674;9.242;2024-03-22T08:27:46;18.90;51.20
21502;DHT22;27639;48.674;9.242;2024-03-22T08:30:12;18.90;50.90
21502;DHT22;27639;48.674;9.242;2024-03-22T08:32:38;19.00;51.00
21502;DHT22;27639;48.674;9.242;2024-03-22T08:35:04;19.20;50.50
21502;DHT22;27639;48.674;9.242;2024-03-22T08:37:30;19.30;50.50
21502;DHT22;27639;48.674;9.242;2024-03-22T08:39:55;19.40;50.80
21502;DHT22;27639;48.674;9.242;2024-03-22T08:42:21;19.50;50.10
21502;DHT22;27639;48.674;9.242;2024-03-22T08:44:47;19.70;49.50
21502;DHT22;27639;48.674;9.242;2024-03-22T08:47:12;19.80;48.90
21502;DHT22;27639;48.674;9.242;2024-03-22T08:49:38;19.90;49.40
21502;DHT22;27639;48.674;9.242;2024-03-22T08:52:04;20.20;49.30
21502;DHT22;27639;48.674;9.242;2024-03-22T08:54:30;20.40;49.10
21502;DHT22;27639;48.674;9.242;2024-03-22T08:56:55;20.70;48.80
21502;DHT22;27639;48.674;9.242;2024-03-22T08:59:21;20.90;47.90
21502;DHT22;27639;48.674;9.242;2024-03-22T09:01:48;21.10;47.90
21502;DHT22;27639;48.674;9.242;2024-03-22T09:04:14;21.30;47.40
21502;DHT22;27639;48.674;9.242;2024-03-22T09:06:40;21.50;47.00
21502;DHT22;27639;48.674;9.242;2024-03-22T09:09:06;21.60;46.10
21502;DHT22;27639;48.674;9.242;2024-03-22T09:11:33;21.80;45.90
21502;DHT22;27639;48.674;9.242;2024-03-22T09:13:59;21.90;44.80
21502;DHT22;27639;48.674;9.242;2024-03-22T09:16:24;22.00;44.90
21502;DHT22;27639;48.674;9.242;2024-03-22T09:18:50;22.10;45.10
21502;DHT22;27639;48.674;9.242;2024-03-22T09:21:16;22.00;43.70
21502;DHT22;27639;48.674;9.242;2024-03-22T09:23:41;21.80;43.70
21502;DHT22;27639;48.674;9.242;2024-03-22T09:26:07;21.80;43.60
21502;DHT22;27639;48.674;9.242;2024-03-22T09:28:33;21.90;43.00
21502;DHT22;27639;48.674;9.242;2024-03-22T09:31:06;22.00;43.00
21502;DHT22;27639;48.674;9.242;2024-03-22T09:33:35;22.10;43.50
21502;DHT22;27639;48.674;9.242;2024-03-22T09:36:01;22.20;42.90
21502;DHT22;27639;48.674;9.242;2024-03-22T09:38:26;22.30;42.90
21502;DHT22;27639;48.674;9.242;2024-03-22T09:40:52;22.40;42.90
21502;DHT22;27639;48.674;9.242;2024-03-22T09:43:23;22.50;42.50
21502;DHT22;27639;48.674;9.242;2024-03-22T09:45:49;22.50;42.40
21502;DHT22;27639;48.674;9.242;2024-03-22T09:48:19;22.70;42.60
21502;DHT22;27639;48.674;9.242;2024-03-22T09:50:48;22.90;42.40
21502;DHT22;27639;48.674;9.242;2024-03-22T09:53:18;23.00;41.40
21502;DHT22;27639;48.674;9.242;2024-03-22T09:55:45;23.00;40.80
21502;DHT22;27639;48.674;9.242;2024-03-22T09:58:12;23.10;41.50
21502;DHT22;27639;48.674;9.242;2024-03-22T10:00:38;23.20;40.40
21502;DHT22;27639;48.674;9.242;2024-03-22T10:03:04;23.10;40.20
21502;DHT22;27639;48.674;9.242;2024-03-22T10:05:30;23.00;40.10
21502;DHT22;27639;48.674;9.242;2024-03-22T10:07:56;23.00;40.10
21502;DHT22;27639;48.674;9.242;2024-03-22T10:10:22;23.00;40.20
21502;DHT22;27639;48.674;9.242;2024-03-22T10:12:48;23.00;39.30
21502;DHT22;27639;48.674;9.242;2024-03-22T10:15:14;23.00;39.50
21502;DHT22;27639;48.674;9.242;2024-03-22T10:17:40;23.20;39.80
21502;DHT22;27639;48.674;9.242;2024-03-22T10:20:06;23.20;38.90
21502;DHT22;27639;48.674;9.242;2024-03-22T10:22:38;23.20;38.60
21502;DHT22;27639;48.674;9.242;2024-03-22T10:25:06;23.30;39.20
21502;DHT22;27639;48.674;9.242;2024-03-22T10:27:32;23.50;38.10
21502;DHT22;27639;48.674;9.242;2024-03-22T10:29:58;23.60;37.50
21502;DHT22;27639;48.674;9.242;2024-03-22T10:32:23;23.70;37.90
21502;DHT22;27639;48.674;9.242;2024-03-22T10:34:50;23.60;37.80
21502;DHT22;27639;48.674;9.242;2024-03-22T10:37:16;23.70;37.30
21502;DHT22;27639;48.674;9.242;2024-03-22T10:39:43;23.70;36.90
21502;DHT22;27639;48.674;9.242;2024-03-22T10:42:11;23.80;36.90
21502;DHT22;27639;48.674;9.242;2024-03-22T10:44:37;23.70;36.70
21502;DHT22;27639;48.674;9.242;2024-03-22T10:47:04;23.80;36.80
21502;DHT22;27639;48.674;9.242;2024-03-22T10:49:36;23.80;37.30
21502;DHT22;27639;48.674;9.242;2024-03-22T10:52:03;23.80;36.90
21502;DHT22;27639;48.674;9.242;2024-03-22T10:54:35;23.80;36.60
21502;DHT22;27639;48.674;9.242;2024-03-22T10:57:01;23.90;36.00
21502;DHT22;27639;48.674;9.242;2024-03-22T10:59:33;24.00;35.90
21502;DHT22;27639;48.674;9.242;2024-03-22T11:02:06;24.00;36.00
21502;DHT22;27639;48.674;9.242;2024-03-22T11:04:32;24.00;37.10
21502;DHT22;27639;48.674;9.242;2024-03-22T11:06:58;24.00;36.70
21502;DHT22;27639;48.674;9.242;2024-03-22T11:09:25;24.00;36.70
21502;DHT22;27639;48.674;9.242;2024-03-22T11:11:55;23.90;36.60
21502;DHT22;27639;48.674;9.242;2024-03-22T11:14:22;23.80;36.60
21502;DHT22;27639;48.674;9.242;2024-03-22T11:16:49;23.80;36.50
21502;DHT22;27639;48.674;9.242;2024-03-22T11:19:16;23.80;36.40
21502;DHT22;27639;48.674;9.242;2024-03-22T11:21:41;24.00;36.50
21502;DHT22;27639;48.674;9.242;2024-03-22T11:24:07;24.00;36.80
21502;DHT22;27639;48.674;9.242;2024-03-22T11:26:36;24.00;37.20
21502;DHT22;27639;48.674;9.242;2024-03-22T11:29:01;24.10;37.10
21502;DHT22;27639;48.674;9.242;2024-03-22T11:31:27;24.20;36.40
21502;DHT22;27639;48.674;9.242;2024-03-22T11:33:56;24.50;36.60
21502;DHT22;27639;48.674;9.242;2024-03-22T11:36:23;24.40;35.90
21502;DHT22;27639;48.674;9.242;2024-03-22T11:38:49;24.50;35.80
21502;DHT22;27639;48.674;9.242;2024-03-22T11:41:17;24.60;35.70
21502;DHT22;27639;48.674;9.242;2024-03-22T11:43:45;24.60;34.90
21502;DHT22;27639;48.674;9.242;2024-03-22T11:46:14;24.60;34.00
21502;DHT22;27639;48.674;9.242;2024-03-22T11:48:40;24.60;34.70
21502;DHT22;27639;48.674;9.242;2024-03-22T11:51:07;24.60;34.80
21502;DHT22;27639;48.674;9.242;2024-03-22T11:53:34;24.70;35.10
21502;DHT22;27639;48.674;9.242;2024-03-22T11:56:00;24.90;35.00
21502;DHT22;27639;48.674;9.242;2024-03-22T11:58:27;25.10;34.10
21502;DHT22;27639;48.674;9.242;2024-03-22T12:00:52;25.30;34.40
21502;DHT22;27639;48.674;9.242;2024-03-22T12:03:18;25.20;34.40
21502;DHT22;27639;48.674;9.242;2024-03-22T12:05:44;25.20;35.00
21502;DHT22;27639;48.674;9.242;2024-03-22T12:08:10;25.20;34.80
21502;DHT22;27639;48.674;9.242;2024-03-22T12:10:36;25.30;34.50
21502;DHT22;27639;48.674;9.242;2024-03-22T12:13:01;25.30;34.40
21502;DHT22;27639;48.674;9.242;2024-03-22T12:15:28;25.20;33.70
21502;DHT22;27639;48.674;9.242;2024-03-22T12:17:54;25.10;34.10
21502;DHT22;27639;48.674;9.242;2024-03-22T12:20:19;25.20;34.20
21502;DHT22;27639;48.674;9.242;2024-03-22T12:22:46;25.10;34.80
21502;DHT22;27639;48.674;9.242;2024-03-22T12:25:11;25.20;34.90
21502;DHT22;27639;48.674;9.242;2024-03-22T12:27:37;25.30;35.20
21502;DHT22;27639;48.674;9.242;2024-03-22T12:30:02;25.40;35.00
21502;DHT22;27639;48.674;9.242;2024-03-22T12:32:28;25.50;35.10
21502;DHT22;27639;48.674;9.242;2024-03-22T12:34:54;25.50;34.60
21502;DHT22;27639;48.674;9.242;2024-03-22T12:37:20;25.50;34.70
21502;DHT22;27639;48.674;9.242;2024-03-22T12:39:45;25.50;34.80
21502;DHT22;27639;48.674;9.242;2024-03-22T12:42:12;25.30;34.80
21502;DHT22;27639;48.674;9.242;2024-03-22T12:44:38;25.30;35.00
21502;DHT22;27639;48.674;9.242;2024-03-22T12:47:04;25.30;34.60
21502;DHT22;27639;48.674;9.242;2024-03-22T12:49:29;25.30;34.40
21502;DHT22;27639;48.674;9.242;2024-03-22T12:51:55;25.20;34.30
21502;DHT22;27639;48.674;9.242;2024-03-22T12:54:22;25.10;34.40
21502;DHT22;27639;48.674;9.242;2024-03-22T12:56:47;25.10;34.70
21502;DHT22;27639;48.674;9.242;2024-03-22T12:59:13;25.10;34.90
21502;DHT22;27639;48.674;9.242;2024-03-22T13:01:39;25.00;34.80
21502;DHT22;27639;48.674;9.242;2024-03-22T13:04:04;25.00;35.40
21502;DHT22;27639;48.674;9.242;2024-03-22T13:06:30;25.00;35.30
21502;DHT22;27639;48.674;9.242;2024-03-22T13:08:55;25.10;34.80
21502;DHT22;27639;48.674;9.242;2024-03-22T13:11:21;25.00;35.00
21502;DHT22;27639;48.674;9.242;2024-03-22T13:13:47;25.10;35.00
21502;DHT22;27639;48.674;9.242;2024-03-22T13:16:12;25.30;35.20
21502;DHT22;27639;48.674;9.242;2024-03-22T13:18:41;25.30;34.90
21502;DHT22;27639;48.674;9.242;2024-03-22T13:21:06;25.30;34.90
21502;DHT22;27639;48.674;9.242;2024-03-22T13:23:32;25.40;34.50
21502;DHT22;27639;48.674;9.242;2024-03-22T13:26:05;25.50;34.80
21502;DHT22;27639;48.674;9.242;2024-03-22T13:28:32;25.50;34.60
21502;DHT22;27639;48.674;9.242;2024-03-22T13:31:04;25.60;34.50
21502;DHT22;27639;48.674;9.242;2024-03-22T13:33:33;25.70;34.00
21502;DHT22;27639;48.674;9.242;2024-03-22T13:35:59;25.80;33.90
21502;DHT22;27639;48.674;9.242;2024-03-22T13:38:24;25.70;33.80
21502;DHT22;27639;48.674;9.242;2024-03-22T13:40:56;25.70;33.20
21502;DHT22;27639;48.674;9.242;2024-03-22T13:43:26;25.80;33.00
21502;DHT22;27639;48.674;9.242;2024-03-22T13:45:55;25.90;33.00
21502;DHT22;27639;48.674;9.242;2024-03-22T13:48:24;26.00;33.10
21502;DHT22;27639;48.674;9.242;2024-03-22T13:50:54;26.00;33.00
21502;DHT22;27639;48.674;9.242;2024-03-22T13:53:20;25.90;33.50
21502;DHT22;27639;48.674;9.242;2024-03-22T13:55:52;25.90;33.60
21502;DHT22;27639;48.674;9.242;2024-03-22T13:58:18;25.80;34.00
21502;DHT22;27639;48.674;9.242;2024-03-22T14:00:44;25.80;33.60
21502;DHT22;27639;48.674;9.242;2024-03-22T14:03:09;25.60;33.40
21502;DHT22;27639;48.674;9.242;2024-03-22T14:05:35;25.60;33.60
21502;DHT22;27639;48.674;9.242;2024-03-22T14:08:01;25.50;33.50
21502;DHT22;27639;48.674;9.242;2024-03-22T14:10:26;25.50;33.20
21502;DHT22;27639;48.674;9.242;2024-03-22T14:12:53;25.50;33.10
21502;DHT22;27639;48.674;9.242;2024-03-22T14:15:20;25.50;34.00
21502;DHT22;27639;48.674;9.242;2024-03-22T14:17:46;25.50;33.40
21502;DHT22;27639;48.674;9.242;2024-03-22T14:20:11;25.40;33.50
21502;DHT22;27639;48.674;9.242;2024-03-22T14:22:41;25.30;33.70
21502;DHT22;27639;48.674;9.242;2024-03-22T14:25:07;25.30;33.70
21502;DHT22;27639;48.674;9.242;2024-03-22T14:27:34;25.30;33.40
21502;DHT22;27639;48.674;9.242;2024-03-22T14:30:00;25.30;33.60
21502;DHT22;27639;48.674;9.242;2024-03-22T14:32:26;25.40;34.00
21502;DHT22;27639;48.674;9.242;2024-03-22T14:34:52;25.40;33.10
21502;DHT22;27639;48.674;9.242;2024-03-22T14:37:18;25.40;33.30
21502;DHT22;27639;48.674;9.242;2024-03-22T14:39:44;25.40;33.30
21502;DHT22;27639;48.674;9.242;2024-03-22T14:42:09;25.40;33.10
21502;DHT22;27639;48.674;9.242;2024-03-22T14:44:35;25.40;32.80
21502;DHT22;27639;48.674;9.242;2024-03-22T14:47:00;25.50;32.80
21502;DHT22;27639;48.674;9.242;2024-03-22T14:49:26;25.50;33.00
21502;DHT22;27639;48.674;9.242;2024-03-22T14:51:52;25.50;33.00
21502;DHT22;27639;48.674;9.242;2024-03-22T14:54:17;25.50;32.90
21502;DHT22;27639;48.674;9.242;2024-03-22T14:56:43;25.50;33.30
21502;DHT22;27639;48.674;9.242;2024-03-22T14:59:08;25.50;32.50
21502;DHT22;27639;48.674;9.242;2024-03-22T15:01:34;25.30;32.40
21502;DHT22;27639;48.674;9.242;2024-03-22T15:04:00;25.30;32.40
21502;DHT22;27639;48.674;9.242;2024-03-22T15:06:26;25.20;33.10
21502;DHT22;27639;48.674;9.242;2024-03-22T15:08:54;25.10;33.10
21502;DHT22;27639;48.674;9.242;2024-03-22T15:11:20;25.00;33.60
21502;DHT22;27639;48.674;9.242;2024-03-22T15:13:46;24.90;33.60
21502;DHT22;27639;48.674;9.242;2024-03-22T15:16:12;24.80;34.00
21502;DHT22;27639;48.674;9.242;2024-03-22T15:18:37;24.60;34.30
21502;DHT22;27639;48.674;9.242;2024-03-22T15:21:03;24.40;34.80
21502;DHT22;27639;48.674;9.242;2024-03-22T15:23:29;24.20;34.90